Station Historical Data
Daily Summary for November 7, 2017 Units:  English    Metric   Both
« Previous Day
Next Day »
Daily Weekly Monthly Yearly Custom
  High: Low: Average:
Temperature: 78.1 °F 63.2 °F 68.2 °F
Dew Point: 70.5 °F 60.6 °F 64.8 °F
Humidity: 94% 71% 89%
Wind Speed: 4.6mph 0.0mph 0.3mph
Wind Gust: 4.6mph - -
Wind- - West
Pressure: 30.09 in 29.95 in -
Precipitation: 0.12 in    
Historical Graphs
 
 
Tabular Data for November 7, 2017
Time Temperature Dew Point Pressure Wind Wind Speed Wind Gust Humidity Rainfall Rate (Hourly) Conditions
00:01 65.0 °F 63.2 °F 30.09 in Calm     94% 0.00 in OVC
00:06 65.0 °F 63.2 °F 30.09 in Calm     94% 0.00 in OVC
00:17 65.1 °F 63.3 °F 30.09 in Calm     94% 0.00 in OVC
00:22 65.1 °F 63.3 °F 30.08 in Calm     94% 0.00 in OVC
00:27 65.1 °F 63.3 °F 30.08 in Calm     94% 0.00 in OVC
00:32 65.2 °F 63.4 °F 30.08 in Calm     94% 0.00 in OVC
00:37 65.2 °F 63.4 °F 30.08 in Calm     94% 0.00 in OVC
00:42 65.2 °F 63.4 °F 30.08 in Calm     94% 0.00 in OVC
00:47 65.2 °F 63.4 °F 30.08 in Calm     94% 0.00 in OVC
00:52 65.2 °F 63.4 °F 30.08 in Calm     94% 0.00 in OVC
00:57 65.2 °F 63.4 °F 30.08 in Calm     94% 0.00 in OVC
01:02 65.2 °F 63.4 °F 30.08 in Calm     94% 0.00 in OVC
01:07 65.2 °F 63.4 °F 30.08 in Calm     94% 0.00 in OVC
01:12 65.1 °F 63.3 °F 30.08 in Calm     94% 0.00 in OVC
01:17 65.1 °F 63.3 °F 30.08 in Calm     94% 0.00 in OVC
01:22 65.1 °F 63.3 °F 30.08 in Calm     94% 0.00 in OVC
01:27 65.1 °F 63.3 °F 30.08 in Calm     94% 0.00 in OVC
01:32 65.1 °F 63.3 °F 30.08 in Calm     94% 0.00 in OVC
01:38 65.1 °F 63.3 °F 30.07 in Calm     94% 0.00 in OVC
01:43 65.1 °F 63.3 °F 30.07 in Calm     94% 0.00 in OVC
01:48 65.2 °F 63.4 °F 30.08 in Calm     94% 0.00 in OVC
01:53 65.2 °F 63.4 °F 30.08 in Calm     94% 0.00 in OVC
01:58 65.1 °F 63.3 °F 30.07 in Calm     94% 0.00 in OVC
02:03 65.1 °F 63.3 °F 30.07 in Calm     94% 0.00 in BKN
02:08 65.0 °F 63.2 °F 30.07 in Calm     94% 0.00 in BKN
02:13 65.0 °F 63.2 °F 30.07 in Calm     94% 0.00 in BKN
02:18 64.9 °F 63.1 °F 30.07 in Calm     94% 0.00 in BKN
02:23 64.8 °F 63.0 °F 30.06 in Calm     94% 0.00 in BKN
02:28 64.8 °F 63.0 °F 30.06 in Calm     94% 0.00 in BKN
02:33 64.7 °F 62.9 °F 30.06 in Calm     94% 0.00 in BKN
02:38 64.6 °F 62.8 °F 30.06 in Calm     94% 0.00 in BKN
02:43 64.5 °F 62.7 °F 30.07 in Calm     94% 0.00 in BKN
02:48 64.4 °F 62.6 °F 30.07 in Calm     94% 0.00 in BKN
02:53 64.4 °F 62.6 °F 30.07 in Calm     94% 0.00 in OVC
02:58 64.3 °F 62.5 °F 30.07 in Calm     94% 0.00 in OVC
03:03 64.3 °F 62.5 °F 30.07 in Calm     94% 0.00 in OVC
03:08 64.2 °F 62.4 °F 30.07 in Calm     94% 0.00 in OVC
03:13 64.1 °F 62.3 °F 30.07 in Calm     94% 0.00 in OVC
03:18 64.0 °F 62.2 °F 30.07 in Calm     94% 0.00 in OVC
03:29 63.8 °F 62.0 °F 30.06 in Calm     94% 0.00 in OVC
03:34 63.7 °F 61.9 °F 30.07 in Calm     94% 0.00 in OVC
03:39 63.7 °F 61.9 °F 30.06 in Calm     94% 0.00 in OVC
03:44 63.7 °F 61.9 °F 30.06 in Calm     94% 0.00 in OVC
03:49 63.6 °F 61.8 °F 30.06 in Calm     94% 0.00 in OVC
03:54 63.6 °F 61.8 °F 30.06 in Calm     94% 0.00 in CLR
03:59 63.6 °F 61.8 °F 30.06 in Calm     94% 0.00 in CLR
04:04 63.6 °F 61.8 °F 30.06 in Calm     94% 0.00 in CLR
04:09 63.5 °F 61.7 °F 30.06 in Calm     94% 0.00 in CLR
04:14 63.5 °F 61.7 °F 30.06 in Calm     94% 0.00 in CLR
04:19 63.5 °F 61.7 °F 30.07 in Calm     94% 0.00 in CLR
04:24 63.4 °F 61.6 °F 30.06 in Calm     94% 0.00 in CLR
04:29 63.4 °F 61.6 °F 30.06 in Calm     94% 0.00 in CLR
04:34 63.3 °F 61.5 °F 30.06 in Calm     94% 0.00 in SCT
04:39 63.2 °F 61.4 °F 30.07 in Calm     94% 0.00 in SCT
04:44 63.2 °F 61.4 °F 30.07 in Calm     94% 0.00 in SCT
04:49 63.2 °F 61.4 °F 30.07 in Calm     94% 0.00 in SCT
04:54 63.2 °F 61.4 °F 30.06 in Calm     94% 0.00 in BKN
04:59 63.2 °F 61.4 °F 30.06 in Calm     94% 0.00 in BKN
05:04 63.3 °F 61.5 °F 30.06 in Calm     94% 0.00 in CLR
05:09 63.3 °F 61.5 °F 30.06 in Calm     94% 0.00 in CLR
05:14 63.3 °F 61.5 °F 30.06 in Calm     94% 0.00 in CLR
05:19 63.3 °F 61.5 °F 30.05 in Calm     94% 0.00 in CLR
05:25 63.3 °F 61.5 °F 30.05 in Calm     94% 0.00 in CLR
05:30 63.4 °F 61.6 °F 30.05 in Calm     94% 0.00 in CLR
05:35 63.5 °F 61.7 °F 30.05 in Calm     94% 0.00 in CLR
05:40 63.6 °F 61.8 °F 30.06 in Calm     94% 0.00 in CLR
05:45 63.7 °F 61.9 °F 30.06 in Calm     94% 0.00 in OVC
05:50 63.9 °F 62.1 °F 30.06 in Calm   1.0 mph 94% 0.00 in OVC
05:55 63.9 °F 62.2 °F 30.06 in Calm     94% 0.00 in OVC
06:00 64.0 °F 62.2 °F 30.06 in Calm     94% 0.00 in OVC
06:05 64.1 °F 62.3 °F 30.06 in Calm     94% 0.00 in OVC
06:15 64.2 °F 62.4 °F 30.06 in Calm     94% 0.00 in OVC
06:20 64.2 °F 62.4 °F 30.06 in Calm     94% 0.00 in OVC
06:25 64.2 °F 62.4 °F 30.06 in Calm     94% 0.00 in OVC
06:30 64.2 °F 62.4 °F 30.06 in Calm     94% 0.00 in OVC
06:35 64.2 °F 62.4 °F 30.06 in Calm     94% 0.00 in OVC
06:40 64.2 °F 62.4 °F 30.06 in Calm     94% 0.00 in OVC
06:45 64.2 °F 62.4 °F 30.06 in Calm     94% 0.00 in OVC
06:50 64.3 °F 62.5 °F 30.06 in Calm     94% 0.00 in OVC
06:55 64.3 °F 62.5 °F 30.06 in Calm     94% 0.00 in OVC
07:05 64.3 °F 62.5 °F 30.06 in Calm     94% 0.00 in OVC
07:10 64.4 °F 62.6 °F 30.06 in Calm   1.0 mph 94% 0.00 in OVC
07:15 64.5 °F 62.7 °F 30.06 in Calm     94% 0.00 in OVC
07:20 64.6 °F 62.8 °F 30.06 in Calm   1.0 mph 94% 0.00 in OVC
07:25 64.6 °F 62.8 °F 30.06 in Calm     94% 0.00 in OVC
07:30 64.6 °F 62.8 °F 30.06 in Calm     94% 0.00 in OVC
07:35 64.7 °F 62.9 °F 30.06 in Calm     94% 0.00 in OVC
07:40 64.7 °F 62.9 °F 30.06 in Calm     94% 0.00 in OVC
07:45 64.7 °F 62.9 °F 30.06 in Calm     94% 0.00 in OVC
07:50 64.8 °F 63.0 °F 30.06 in Calm   1.0 mph 94% 0.00 in OVC
07:55 64.9 °F 63.1 °F 30.06 in Calm     94% 0.00 in OVC
08:00 65.0 °F 63.2 °F 30.06 in Calm     94% 0.00 in OVC
08:05 65.1 °F 63.3 °F 30.06 in Calm     94% 0.00 in OVC
08:10 65.2 °F 63.5 °F 30.06 in Calm     94% 0.00 in OVC
08:15 65.4 °F 63.6 °F 30.05 in Calm     94% 0.00 in OVC
08:20 65.6 °F 63.8 °F 30.05 in Calm     94% 0.00 in OVC
08:25 65.6 °F 63.8 °F 30.05 in Calm   1.0 mph 94% 0.00 in OVC
08:30 65.7 °F 63.9 °F 30.06 in Calm     94% 0.00 in OVC
08:35 65.9 °F 64.1 °F 30.06 in Calm     94% 0.00 in OVC
08:40 66.1 °F 64.3 °F 30.06 in Calm     94% 0.00 in OVC
08:45 66.2 °F 64.4 °F 30.07 in Calm     94% 0.00 in OVC
08:50 66.3 °F 64.5 °F 30.06 in Calm     94% 0.00 in OVC
08:55 66.3 °F 64.6 °F 30.06 in Calm     94% 0.00 in OVC
09:00 66.5 °F 64.7 °F 30.06 in Calm     94% 0.00 in OVC
09:05 66.9 °F 65.1 °F 30.06 in Calm   2.0 mph 94% 0.00 in BKN
09:10 67.3 °F 65.5 °F 30.06 in Calm   2.0 mph 94% 0.00 in BKN
09:15 67.7 °F 66.0 °F 30.07 in Calm   3.0 mph 94% 0.00 in BKN
09:20 68.1 °F 66.0 °F 30.07 in Calm   1.0 mph 93% 0.00 in BKN
09:25 68.4 °F 66.0 °F 30.07 in Calm     92% 0.00 in BKN
09:30 68.5 °F 65.5 °F 30.07 in Calm   1.0 mph 90% 0.00 in BKN
09:35 68.8 °F 65.7 °F 30.07 in Calm   2.0 mph 90% 0.00 in BKN
09:40 69.0 °F 65.7 °F 30.06 in Calm   2.0 mph 89% 0.00 in BKN
09:45 69.3 °F 66.0 °F 30.06 in Calm     89% 0.00 in BKN
09:50 69.8 °F 66.1 °F 30.06 in Calm   2.0 mph 88% 0.00 in BKN
09:55 70.5 °F 66.4 °F 30.06 in Calm   3.0 mph 87% 0.00 in BKN
10:00 70.9 °F 66.2 °F 30.06 in Calm   2.0 mph 85% 0.00 in BKN
10:05 71.1 °F 66.4 °F 30.05 in Calm   3.0 mph 85% 0.00 in BKN
10:10 71.8 °F 67.0 °F 30.05 in WNW 1.2 mph   85% 0.00 in BKN
10:15 72.8 °F 67.7 °F 30.05 in Calm   1.0 mph 84% 0.00 in BKN
10:20 73.7 °F 67.9 °F 30.05 in Calm   1.0 mph 82% 0.00 in BKN
10:25 74.3 °F 68.1 °F 30.05 in Calm   2.0 mph 81% 0.00 in BKN
10:30 74.6 °F 67.7 °F 30.04 in NW 1.0 mph 2.0 mph 79% 0.00 in BKN
10:35 74.3 °F 67.7 °F 30.04 in North 1.2 mph   80% 0.00 in BKN
10:45 73.8 °F 67.2 °F 30.04 in NNE 2.3 mph 2.3 mph 80% 0.00 in BKN
10:50 73.8 °F 67.2 °F 30.04 in Calm     80% 0.00 in BKN
10:55 74.3 °F 68.1 °F 30.04 in Calm     81% 0.00 in BKN
11:00 74.7 °F 67.8 °F 30.03 in WNW 1.2 mph 1.2 mph 79% 0.00 in BKN
11:05 74.8 °F 67.8 °F 30.03 in NW 1.2 mph 1.2 mph 79% 0.00 in BKN
11:10 74.9 °F 67.6 °F 30.04 in Calm     78% 0.00 in BKN
11:15 75.2 °F 68.2 °F 30.03 in SSE 1.2 mph 1.2 mph 79% 0.00 in BKN
11:20 75.4 °F 67.7 °F 30.03 in Calm     77% 0.00 in BKN
11:25 75.2 °F 67.9 °F 30.03 in WNW 1.2 mph 1.2 mph 78% 0.00 in BKN
11:30 75.1 °F 67.8 °F 30.03 in West 3.1 mph 3.1 mph 78% 0.00 in BKN
11:35 75.3 °F 68.3 °F 30.02 in West 2.3 mph 2.3 mph 79% 0.00 in BKN
11:40 75.7 °F 68.0 °F 30.02 in North 1.2 mph 1.2 mph 77% 0.00 in BKN
11:45 76.2 °F 68.1 °F 30.02 in WNW 2.3 mph 2.3 mph 76% 0.00 in BKN
11:50 76.6 °F 68.1 °F 30.02 in WNW 2.0 mph 2.0 mph 75% 0.00 in BKN
11:55 76.7 °F 68.2 °F 30.02 in WNW 2.3 mph 2.3 mph 75% 0.00 in BKN
12:00 76.6 °F 67.7 °F 30.01 in NNW 1.2 mph 1.2 mph 74% 0.00 in BKN
12:05 76.3 °F 68.2 °F 30.02 in NNW 1.2 mph 1.2 mph 76% 0.00 in SCT
12:10 76.4 °F 68.3 °F 30.01 in WNW 2.0 mph 2.0 mph 76% 0.00 in SCT
12:16 76.2 °F 68.1 °F 30.01 in NW 1.2 mph   76% 0.00 in SCT
12:21 76.2 °F 68.1 °F 30.01 in West 3.5 mph 3.5 mph 76% 0.00 in SCT
12:26 76.3 °F 68.2 °F 30.00 in NW 1.2 mph 1.2 mph 76% 0.00 in BKN
12:31 76.3 °F 67.8 °F 30.00 in Calm     75% 0.00 in BKN
12:36 76.4 °F 67.5 °F 30.00 in North 1.2 mph   74% 0.00 in BKN
12:41 76.3 °F 67.4 °F 29.99 in WNW 1.2 mph 1.2 mph 74% 0.00 in BKN
12:46 75.9 °F 67.8 °F 29.99 in Calm     76% 0.00 in BKN
12:51 76.0 °F 68.3 °F 29.99 in West 1.2 mph 1.2 mph 77% 0.00 in SCT
12:56 76.7 °F 68.2 °F 29.99 in NW 1.2 mph 1.2 mph 75% 0.00 in SCT
13:01 77.5 °F 68.6 °F 29.99 in WNW 4.6 mph 4.6 mph 74% 0.00 in BKN
13:06 78.1 °F 67.9 °F 29.99 in NW 2.3 mph 2.3 mph 71% 0.00 in BKN
13:11 77.8 °F 68.0 °F 29.99 in West 2.0 mph 2.0 mph 72% 0.00 in BKN
13:16 77.3 °F 67.6 °F 29.98 in Calm     72% 0.00 in BKN
13:21 77.1 °F 68.2 °F 29.98 in Calm     74% 0.00 in BKN
13:26 77.2 °F 67.9 °F 29.98 in WNW 1.2 mph   73% 0.00 in BKN
13:36 77.5 °F 67.8 °F 29.98 in Calm     72% 0.00 in BKN
13:41 77.3 °F 68.4 °F 29.97 in Calm     74% 0.00 in BKN
13:46 77.0 °F 68.1 °F 29.97 in WNW 1.2 mph 1.2 mph 74% 0.00 in BKN
13:51 76.9 °F 67.6 °F 29.97 in Calm     73% 0.00 in BKN
13:57 76.9 °F 67.6 °F 29.97 in WSW 1.2 mph 1.2 mph 73% 0.00 in BKN
14:02 76.8 °F 67.9 °F 29.97 in SSW 2.0 mph 2.0 mph 74% 0.00 in BKN
14:07 76.2 °F 68.5 °F 29.97 in East 1.0 mph 1.0 mph 77% 0.01 in RA
14:12 74.2 °F 68.3 °F 29.97 in West 1.2 mph 1.2 mph 82% 0.10 in RA
14:17 72.8 °F 68.0 °F 29.97 in Calm     85% 0.11 in BKN
14:22 72.3 °F 68.5 °F 29.97 in West 1.2 mph   88% 0.11 in BKN
14:27 72.1 °F 68.7 °F 29.97 in Calm     89% 0.11 in BKN
14:32 72.2 °F 69.1 °F 29.96 in Calm     90% 0.11 in BKN
14:37 72.6 °F 69.8 °F 29.97 in Calm     91% 0.11 in BKN
14:42 73.0 °F 70.5 °F 29.96 in Calm     92% 0.12 in BKN
14:52 73.3 °F 70.2 °F 29.95 in Calm     90% 0.12 in BKN
14:57 73.3 °F 70.2 °F 29.96 in Calm     90% 0.12 in BKN
15:02 73.2 °F 70.1 °F 29.96 in Calm     90% 0.12 in BKN
15:07 73.0 °F 69.9 °F 29.96 in Calm     90% 0.09 in BKN
15:12 72.9 °F 69.8 °F 29.95 in Calm   0.1 mph 90% 0.01 in BKN
15:17 72.9 °F 69.8 °F 29.95 in Calm     90% 0.01 in BKN
15:22 73.0 °F 69.9 °F 29.96 in Calm     90% 0.01 in BKN
15:27 72.9 °F 69.1 °F 29.95 in Calm     88% 0.01 in BKN
15:32 73.1 °F 69.0 °F 29.95 in WNW 1.0 mph 1.0 mph 87% 0.01 in BKN
15:38 73.0 °F 67.9 °F 29.95 in SSW 1.2 mph 1.2 mph 84% 0.01 in BKN
15:43 72.7 °F 67.2 °F 29.95 in NW 1.2 mph 1.2 mph 83% 0.00 in BKN
15:48 72.5 °F 67.4 °F 29.96 in West 2.3 mph 2.3 mph 84% 0.00 in BKN
15:53 72.3 °F 67.2 °F 29.96 in Calm     84% 0.00 in BKN
15:58 72.1 °F 67.3 °F 29.97 in West 1.2 mph 1.2 mph 85% 0.00 in BKN
16:03 71.9 °F 67.8 °F 29.97 in West 1.2 mph   87% 0.00 in BKN
16:08 71.6 °F 67.9 °F 29.97 in West 1.2 mph   88% 0.00 in BKN
16:13 71.4 °F 67.7 °F 29.96 in West 1.2 mph   88% 0.00 in BKN
16:23 71.2 °F 67.5 °F 29.97 in West 1.2 mph   88% 0.00 in BKN
16:28 71.1 °F 67.7 °F 29.97 in Calm     89% 0.00 in BKN
16:33 71.1 °F 67.7 °F 29.97 in Calm     89% 0.00 in -RA
16:38 71.1 °F 67.7 °F 29.96 in Calm     89% 0.00 in -RA
16:43 71.1 °F 67.7 °F 29.96 in Calm     89% 0.00 in BKN
16:48 71.1 °F 67.7 °F 29.97 in WNW 1.2 mph   89% 0.00 in BKN
16:53 71.0 °F 67.3 °F 29.97 in Calm     88% 0.00 in BKN
16:58 71.1 °F 67.4 °F 29.96 in Calm     88% 0.00 in BKN
17:03 71.0 °F 67.3 °F 29.97 in Calm     88% 0.00 in BKN
17:10 70.9 °F 67.2 °F 29.97 in Calm   1.0 mph 88% 0.00 in BKN
17:15 70.9 °F 67.2 °F 29.97 in Calm     88% 0.00 in BKN
17:20 70.8 °F 67.1 °F 29.97 in Calm     88% 0.00 in BKN
17:25 70.6 °F 67.2 °F 29.97 in Calm     89% 0.00 in BKN
17:30 70.5 °F 67.1 °F 29.97 in Calm     89% 0.00 in BKN
17:35 70.3 °F 66.9 °F 29.97 in Calm     89% 0.00 in BKN
17:40 70.2 °F 66.8 °F 29.97 in Calm     89% 0.00 in BKN
17:45 69.9 °F 66.8 °F 29.97 in Calm     90% 0.00 in BKN
17:50 69.7 °F 66.6 °F 29.97 in NNE 1.2 mph   90% 0.00 in BKN
17:55 69.4 °F 66.3 °F 29.98 in Calm     90% 0.00 in BKN
18:00 69.2 °F 66.1 °F 29.97 in Calm     90% 0.00 in BKN
18:01 69.2 °F 66.1 °F 29.97 in NNE 1.0 mph 1.0 mph 90% 0.00 in BKN
18:06 69.1 °F 66.4 °F 29.99 in WSW 1.2 mph 1.2 mph 91% 0.00 in BKN
18:11 69.1 °F 66.0 °F 29.99 in Calm     90% 0.00 in BKN
18:16 69.3 °F 66.2 °F 29.99 in WNW 1.0 mph   90% 0.00 in BKN
18:21 69.2 °F 66.1 °F 29.98 in Calm     90% 0.00 in BKN
18:26 69.2 °F 66.1 °F 29.99 in Calm     90% 0.00 in BKN
18:31 69.0 °F 65.9 °F 29.99 in Calm     90% 0.00 in BKN
18:36 68.9 °F 66.2 °F 29.99 in Calm     91% 0.00 in BKN
18:41 68.8 °F 65.7 °F 29.99 in Calm     90% 0.00 in BKN
18:46 68.7 °F 66.0 °F 29.99 in Calm     91% 0.00 in BKN
18:57 68.5 °F 65.8 °F 30.00 in Calm     91% 0.00 in BKN
19:02 68.4 °F 65.7 °F 30.00 in Calm     91% 0.00 in OVC
19:07 68.3 °F 65.6 °F 30.00 in Calm     91% 0.00 in OVC
19:12 68.2 °F 65.5 °F 30.00 in Calm     91% 0.00 in OVC
19:17 68.1 °F 65.4 °F 30.00 in Calm     91% 0.00 in OVC
19:22 67.9 °F 65.2 °F 29.99 in Calm     91% 0.00 in OVC
19:27 67.7 °F 65.0 °F 29.99 in Calm     91% 0.00 in OVC
19:32 67.5 °F 64.8 °F 29.99 in Calm     91% 0.00 in OVC
19:37 67.4 °F 64.7 °F 29.99 in Calm     91% 0.00 in OVC
19:42 67.2 °F 64.5 °F 29.99 in Calm     91% 0.00 in OVC
19:47 67.1 °F 64.7 °F 29.99 in Calm     92% 0.00 in OVC
19:52 67.0 °F 64.6 °F 29.99 in Calm     92% 0.00 in OVC
19:57 66.8 °F 64.4 °F 29.99 in Calm     92% 0.00 in OVC
20:00 66.7 °F 64.3 °F 29.99 in Calm     92% 0.00 in OVC
20:05 66.5 °F 64.1 °F 29.99 in Calm     92% 0.00 in BKN
20:10 66.3 °F 63.9 °F 29.99 in Calm     92% 0.00 in BKN
20:15 66.2 °F 63.8 °F 29.99 in Calm     92% 0.00 in BKN
20:18 66.1 °F 63.7 °F 30.00 in Calm     92% 0.00 in BKN
20:23 66.0 °F 63.6 °F 30.00 in Calm     92% 0.00 in BKN
20:28 66.0 °F 63.6 °F 30.00 in Calm     92% 0.00 in BKN
20:33 65.8 °F 63.4 °F 30.00 in Calm     92% 0.00 in BKN
20:38 65.7 °F 63.3 °F 30.01 in Calm     92% 0.00 in BKN
20:43 65.5 °F 63.1 °F 30.01 in Calm     92% 0.00 in BKN
20:48 65.5 °F 63.4 °F 30.01 in Calm     93% 0.00 in BKN
20:54 65.5 °F 63.4 °F 30.01 in Calm     93% 0.00 in BKN
20:59 65.5 °F 63.4 °F 30.01 in Calm     93% 0.00 in BKN
21:04 65.6 °F 63.5 °F 30.01 in Calm     93% 0.00 in BKN
21:09 65.7 °F 63.6 °F 30.01 in Calm     93% 0.00 in BKN
21:14 65.6 °F 63.5 °F 30.01 in Calm     93% 0.00 in BKN
21:19 65.6 °F 63.5 °F 30.01 in Calm     93% 0.00 in BKN
21:24 65.6 °F 63.5 °F 30.01 in Calm     93% 0.00 in BKN
21:29 65.7 °F 63.6 °F 30.01 in Calm     93% 0.00 in BKN
21:34 65.7 °F 63.6 °F 30.01 in SSW 2.3 mph 2.3 mph 93% 0.00 in BKN
21:39 65.7 °F 63.6 °F 30.01 in Calm     93% 0.00 in BKN
21:44 65.7 °F 63.6 °F 30.00 in Calm     93% 0.00 in BKN
21:49 65.6 °F 63.5 °F 30.00 in Calm     93% 0.00 in BKN
21:54 65.6 °F 63.5 °F 30.01 in Calm     93% 0.00 in BKN
21:59 65.5 °F 63.4 °F 30.01 in Calm     93% 0.00 in BKN
22:04 65.4 °F 63.0 °F 30.01 in Calm     92% 0.00 in BKN
22:09 65.4 °F 63.3 °F 30.01 in Calm     93% 0.00 in BKN
22:14 65.4 °F 63.0 °F 30.01 in West 1.2 mph   92% 0.00 in BKN
22:19 65.3 °F 62.6 °F 30.01 in West 1.2 mph   91% 0.00 in BKN
22:23 65.3 °F 62.6 °F 30.01 in Calm     91% 0.00 in BKN
22:28 65.3 °F 62.3 °F 30.02 in West 1.2 mph 1.2 mph 90% 0.00 in BKN
22:33 65.2 °F 61.9 °F 30.01 in WNW 1.2 mph   89% 0.00 in BKN
22:38 65.2 °F 61.6 °F 30.01 in Calm     88% 0.00 in BKN
22:48 64.9 °F 61.3 °F 30.01 in West 1.2 mph 1.2 mph 88% 0.00 in BKN
22:53 64.7 °F 61.1 °F 30.01 in Calm     88% 0.00 in BKN
22:58 64.6 °F 61.0 °F 30.01 in Calm     88% 0.00 in BKN
23:03 64.5 °F 60.9 °F 30.01 in Calm     88% 0.00 in BKN
23:08 64.5 °F 61.2 °F 30.01 in Calm     89% 0.00 in BKN
23:14 64.3 °F 61.0 °F 30.01 in Calm     89% 0.00 in BKN
23:19 64.3 °F 61.0 °F 30.00 in Calm     89% 0.00 in BKN
23:24 64.3 °F 61.0 °F 30.00 in Calm     89% 0.00 in BKN
23:29 64.1 °F 60.8 °F 30.00 in Calm     89% 0.00 in BKN
23:34 63.9 °F 60.6 °F 30.00 in Calm     89% 0.00 in BKN
23:39 63.7 °F 60.7 °F 29.99 in Calm     90% 0.00 in BKN
23:44 63.7 °F 60.7 °F 29.99 in Calm     90% 0.00 in BKN
23:49 63.6 °F 60.6 °F 29.99 in Calm     90% 0.00 in BKN
23:54 63.6 °F 60.9 °F 30.00 in Calm     91% 0.00 in SCT
23:59 63.5 °F 60.8 °F 30.00 in Calm     91% 0.00 in SCT
Piedmont Bend
Compliments of Weather Underground - 2 mb